Time;durP1;ratioP1;P1;durP2;ratioP2;P2;SDS_P1;SDS_P2;PMS_P1;PMS_P2;Temp;Humidity;BMP_temperature;BMP_pressure;BME280_temperature;BME280_humidity;BME280_pressure;Samples;Min_cycle;Max_cycle;Signal;HPM_P1;HPM_P2
2021/04/27 00:00:32;;;;;;;2.10;0.90;;;;;;;;;;5066829;28;20173;-52
2021/04/27 00:02:57;;;;;;;0.50;0.50;;;;;;;;;;5065797;28;20720;-51
2021/04/27 00:05:23;;;;;;;0.40;0.40;;;;;;;;;;5065666;28;20775;-51
2021/04/27 00:07:48;;;;;;;1.07;0.87;;;;;;;;;;5067033;28;20234;-51
2021/04/27 00:10:14;;;;;;;0.57;0.50;;;;;;;;;;5068521;28;20181;-52
2021/04/27 00:12:40;;;;;;;0.40;0.40;;;;;;;;;;5068121;28;20209;-51
2021/04/27 00:15:11;;;;;;;1.40;0.80;;;;;;;;;;5064562;28;20193;-53
2021/04/27 00:17:36;;;;;;;0.60;0.47;;;;;;;;;;5068796;28;20223;-53
2021/04/27 00:20:06;;;;;;;0.40;0.40;;;;;;;;;;5067251;28;20169;-51
2021/04/27 00:22:34;;;;;;;0.30;0.30;;;;;;;;;;5068347;28;20292;-52
2021/04/27 00:25:02;;;;;;;0.97;0.77;;;;;;;;;;5065231;28;20620;-51
2021/04/27 00:27:27;;;;;;;0.83;0.70;;;;;;;;;;5066699;28;20182;-51
2021/04/27 00:29:52;;;;;;;4.83;1.10;;;;;;;;;;5067962;28;20718;-49
2021/04/27 00:32:20;;;;;;;0.77;0.67;;;;;;;;;;5067048;28;20205;-51
2021/04/27 00:34:47;;;;;;;3.77;1.40;;;;;;;;;;5045391;28;20575;-51
2021/04/27 00:37:12;;;;;;;2.50;1.40;;;;;;;;;;5066828;28;20671;-52
2021/04/27 00:39:43;;;;;;;1.87;1.33;;;;;;;;;;5068429;28;20219;-52
2021/04/27 00:42:10;;;;;;;3.33;1.80;;;;;;;;;;5064576;28;20212;-53
2021/04/27 00:44:36;;;;;;;3.03;1.57;;;;;;;;;;5065382;28;20182;-50
2021/04/27 00:47:01;;;;;;;1.80;1.57;;;;;;;;;;5064226;28;20185;-53
2021/04/27 00:49:28;;;;;;;2.30;1.50;;;;;;;;;;5066214;28;20661;-51
2021/04/27 00:51:56;;;;;;;1.73;1.40;;;;;;;;;;5067153;28;20204;-52
2021/04/27 00:54:23;;;;;;;4.30;1.53;;;;;;;;;;5066905;28;20176;-59
2021/04/27 00:56:49;;;;;;;3.80;1.63;;;;;;;;;;5066752;28;20208;-51
2021/04/27 00:59:16;;;;;;;4.73;1.63;;;;;;;;;;5066499;28;20173;-51
2021/04/27 01:01:41;;;;;;;3.70;1.97;;;;;;;;;;5066188;28;20193;-51
2021/04/27 01:04:07;;;;;;;2.00;1.60;;;;;;;;;;5066513;28;20199;-52
2021/04/27 01:06:32;;;;;;;3.60;1.90;;;;;;;;;;5065423;28;20185;-53
2021/04/27 01:09:03;;;;;;;6.47;1.57;;;;;;;;;;5046644;28;20573;-51
2021/04/27 01:11:58;;;;;;;6.13;2.10;;;;;;;;;;5048159;28;20194;-52
2021/04/27 01:14:26;;;;;;;2.17;1.90;;;;;;;;;;5046188;28;20189;-54
2021/04/27 01:16:55;;;;;;;8.07;1.47;;;;;;;;;;5066344;28;20675;-50
2021/04/27 01:19:28;;;;;;;3.57;1.67;;;;;;;;;;5064418;28;20185;-52
2021/04/27 01:21:56;;;;;;;1.97;1.43;;;;;;;;;;5048603;28;20807;-52
2021/04/27 01:24:30;;;;;;;2.17;1.37;;;;;;;;;;5066478;28;20185;-51
2021/04/27 01:26:57;;;;;;;2.63;1.50;;;;;;;;;;5067249;28;20188;-52
2021/04/27 01:29:27;;;;;;;3.73;1.53;;;;;;;;;;5062051;28;20661;-53
2021/04/27 01:31:55;;;;;;;4.00;1.60;;;;;;;;;;5064516;28;20654;-50
2021/04/27 01:34:26;;;;;;;4.23;1.93;;;;;;;;;;5064635;28;20177;-54
2021/04/27 01:36:52;;;;;;;2.97;1.50;;;;;;;;;;5066060;28;20251;-53
2021/04/27 01:39:19;;;;;;;2.80;1.50;;;;;;;;;;5062857;28;20181;-52
2021/04/27 01:41:46;;;;;;;4.27;1.50;;;;;;;;;;5063299;28;20208;-52
2021/04/27 01:44:11;;;;;;;4.63;1.70;;;;;;;;;;5067374;28;20198;-52
2021/04/27 01:46:41;;;;;;;3.83;1.50;;;;;;;;;;5062705;28;20220;-53
2021/04/27 01:49:11;;;;;;;3.07;1.50;;;;;;;;;;5065904;28;20742;-54
2021/04/27 01:51:38;;;;;;;3.50;1.37;;;;;;;;;;5064239;28;20213;-52
2021/04/27 01:54:06;;;;;;;2.77;1.50;;;;;;;;;;5061849;28;20180;-54
2021/04/27 01:56:34;;;;;;;2.90;1.50;;;;;;;;;;5066757;28;20216;-52
2021/04/27 01:59:01;;;;;;;5.43;2.00;;;;;;;;;;5062107;28;20177;-51
2021/04/27 02:01:26;;;;;;;3.20;1.80;;;;;;;;;;5062897;28;20266;-53
2021/04/27 02:03:54;;;;;;;2.70;1.43;;;;;;;;;;5063871;28;20181;-53
2021/04/27 02:06:21;;;;;;;6.13;1.53;;;;;;;;;;5065655;28;20274;-52
2021/04/27 02:09:02;;;;;;;2.63;1.47;;;;;;;;;;5060488;28;20594;-53
2021/04/27 02:11:31;;;;;;;2.07;1.33;;;;;;;;;;5063877;28;20213;-52
2021/04/27 02:13:59;;;;;;;2.37;1.33;;;;;;;;;;5065480;28;20627;-53
2021/04/27 02:16:28;;;;;;;1.77;1.17;;;;;;;;;;5063611;28;20808;-53
2021/04/27 02:18:57;;;;;;;3.00;1.30;;;;;;;;;;5066360;28;20180;-52
2021/04/27 02:21:25;;;;;;;3.30;1.37;;;;;;;;;;5063733;28;20640;-52
2021/04/27 02:23:52;;;;;;;2.43;1.23;;;;;;;;;;5064572;28;20192;-52
2021/04/27 02:26:18;;;;;;;3.17;1.23;;;;;;;;;;5064297;28;20177;-52
2021/04/27 02:28:46;;;;;;;3.23;1.53;;;;;;;;;;5065936;28;20905;-52
2021/04/27 02:31:14;;;;;;;4.07;1.37;;;;;;;;;;5065058;28;20204;-51
2021/04/27 02:33:44;;;;;;;1.60;1.30;;;;;;;;;;5062026;28;20199;-53
2021/04/27 02:36:10;;;;;;;1.97;1.43;;;;;;;;;;5063765;28;20557;-52
2021/04/27 02:38:35;;;;;;;2.33;1.40;;;;;;;;;;5065878;28;20174;-51
2021/04/27 02:41:03;;;;;;;1.40;1.23;;;;;;;;;;5047953;28;20569;-53
2021/04/27 02:43:29;;;;;;;3.07;1.33;;;;;;;;;;5091678;22;20176;-50
2021/04/27 02:45:54;;;;;;;4.40;1.40;;;;;;;;;;5059945;28;20649;-49
2021/04/27 02:48:26;;;;;;;2.77;1.30;;;;;;;;;;5081852;28;20607;-50
2021/04/27 02:50:53;;;;;;;5.00;1.63;;;;;;;;;;5080580;28;20531;-51
2021/04/27 02:53:19;;;;;;;3.53;1.40;;;;;;;;;;5083657;28;20282;-51
2021/04/27 02:55:44;;;;;;;2.20;1.40;;;;;;;;;;5082086;28;20192;-49
2021/04/27 02:58:10;;;;;;;2.77;1.53;;;;;;;;;;5085970;28;20197;-50
2021/04/27 03:00:35;;;;;;;2.73;1.40;;;;;;;;;;5080380;28;20629;-51
2021/04/27 03:03:00;;;;;;;2.60;1.57;;;;;;;;;;5080871;28;20193;-50
2021/04/27 03:05:26;;;;;;;3.90;1.50;;;;;;;;;;5083472;28;20197;-50
2021/04/27 03:07:51;;;;;;;3.33;1.73;;;;;;;;;;5084705;28;20563;-49
2021/04/27 03:10:16;;;;;;;2.20;1.70;;;;;;;;;;5083760;28;20204;-49
2021/04/27 03:12:42;;;;;;;3.10;1.50;;;;;;;;;;5084813;28;20210;-48
2021/04/27 03:15:08;;;;;;;1.90;1.23;;;;;;;;;;5059940;28;20259;-47
2021/04/27 03:17:34;;;;;;;5.47;1.43;;;;;;;;;;5074459;28;20691;-49
2021/04/27 03:19:59;;;;;;;2.53;1.77;;;;;;;;;;5082083;28;20174;-49
2021/04/27 03:22:24;;;;;;;4.97;1.60;;;;;;;;;;5085431;28;20215;-49
2021/04/27 03:24:50;;;;;;;2.93;1.50;;;;;;;;;;5079449;28;20212;-48
2021/04/27 03:27:15;;;;;;;2.87;1.50;;;;;;;;;;5100463;28;20183;-49
2021/04/27 03:29:40;;;;;;;4.83;1.80;;;;;;;;;;5099411;28;20173;-49
2021/04/27 03:32:06;;;;;;;3.67;1.67;;;;;;;;;;5091740;28;20185;-48
2021/04/27 03:34:31;;;;;;;2.43;1.60;;;;;;;;;;5084684;28;20810;-50
2021/04/27 03:36:56;;;;;;;2.93;1.50;;;;;;;;;;5064107;28;20239;-49
2021/04/27 03:39:21;;;;;;;3.63;1.63;;;;;;;;;;5072674;28;20179;-51
2021/04/27 03:41:46;;;;;;;2.77;1.63;;;;;;;;;;5067685;28;20745;-49
2021/04/27 03:44:12;;;;;;;2.87;1.37;;;;;;;;;;5085824;28;20208;-48
2021/04/27 03:46:37;;;;;;;3.37;1.60;;;;;;;;;;5069261;28;20215;-48
2021/04/27 03:49:02;;;;;;;3.10;1.80;;;;;;;;;;5083663;28;20177;-48
2021/04/27 03:51:28;;;;;;;2.97;1.73;;;;;;;;;;5083416;28;20184;-48
2021/04/27 03:53:55;;;;;;;4.07;1.87;;;;;;;;;;5066667;28;20680;-48
2021/04/27 03:56:20;;;;;;;6.03;3.17;;;;;;;;;;5080651;28;20207;-49
2021/04/27 03:58:45;;;;;;;8.63;2.17;;;;;;;;;;5089174;28;20187;-48
2021/04/27 04:01:13;;;;;;;3.73;1.77;;;;;;;;;;5065668;28;20204;-50
2021/04/27 04:03:39;;;;;;;4.77;1.90;;;;;;;;;;5082723;28;21260;-49
2021/04/27 04:06:04;;;;;;;4.70;1.70;;;;;;;;;;5061225;28;20299;-49
2021/04/27 04:08:29;;;;;;;2.03;1.60;;;;;;;;;;5070301;28;20195;-49
2021/04/27 04:10:55;;;;;;;4.77;1.80;;;;;;;;;;5088181;28;20196;-48
2021/04/27 04:13:20;;;;;;;4.07;1.83;;;;;;;;;;5085464;28;20215;-49
2021/04/27 04:15:45;;;;;;;2.30;1.60;;;;;;;;;;5069515;28;20181;-48
2021/04/27 04:18:10;;;;;;;3.30;2.10;;;;;;;;;;5085527;28;20200;-50
2021/04/27 04:20:35;;;;;;;3.53;1.80;;;;;;;;;;5085951;28;20266;-49
2021/04/27 04:23:00;;;;;;;2.77;1.80;;;;;;;;;;5082448;28;20270;-50
2021/04/27 04:25:26;;;;;;;4.73;1.80;;;;;;;;;;5060474;28;20211;-49
2021/04/27 04:27:51;;;;;;;8.87;2.00;;;;;;;;;;5089858;28;20181;-50
2021/04/27 04:30:21;;;;;;;2.23;1.80;;;;;;;;;;5078866;28;20665;-48
2021/04/27 04:32:47;;;;;;;3.37;1.87;;;;;;;;;;5082260;28;20181;-48
2021/04/27 04:35:12;;;;;;;2.50;1.30;;;;;;;;;;5065533;28;20201;-48
2021/04/27 04:37:38;;;;;;;2.17;1.50;;;;;;;;;;5078731;28;20221;-49
2021/04/27 04:40:04;;;;;;;4.70;1.80;;;;;;;;;;5070329;28;20242;-48
2021/04/27 04:42:29;;;;;;;1.70;1.50;;;;;;;;;;5066751;28;20202;-47
2021/04/27 04:44:55;;;;;;;3.63;1.67;;;;;;;;;;5083993;28;20222;-47
2021/04/27 04:47:20;;;;;;;3.23;2.17;;;;;;;;;;5068495;28;20181;-49
2021/04/27 04:49:45;;;;;;;5.03;1.90;;;;;;;;;;5087268;28;20187;-49
2021/04/27 04:52:13;;;;;;;2.93;1.63;;;;;;;;;;5069619;28;20224;-50
2021/04/27 04:54:38;;;;;;;3.47;2.10;;;;;;;;;;5081824;28;20680;-48
2021/04/27 04:57:04;;;;;;;4.17;2.10;;;;;;;;;;5083531;28;20206;-51
2021/04/27 04:59:29;;;;;;;2.63;1.70;;;;;;;;;;5084811;28;20184;-49
2021/04/27 05:01:54;;;;;;;3.73;1.67;;;;;;;;;;5084984;28;20246;-49
2021/04/27 05:04:19;;;;;;;5.57;1.93;;;;;;;;;;5071429;28;20254;-49
2021/04/27 05:06:45;;;;;;;3.40;2.10;;;;;;;;;;5083171;28;20180;-49
2021/04/27 05:09:14;;;;;;;2.80;1.43;;;;;;;;;;5069060;28;20192;-50
2021/04/27 05:11:40;;;;;;;3.30;1.77;;;;;;;;;;5083304;28;20245;-49
2021/04/27 05:14:06;;;;;;;2.97;1.67;;;;;;;;;;5081815;28;20630;-48
2021/04/27 05:16:31;;;;;;;2.40;2.07;;;;;;;;;;5083357;28;20204;-50
2021/04/27 05:18:57;;;;;;;5.13;2.20;;;;;;;;;;5064144;28;20364;-49
2021/04/27 05:21:22;;;;;;;3.10;2.40;;;;;;;;;;5066701;28;20649;-49
2021/04/27 05:23:47;;;;;;;3.20;1.73;;;;;;;;;;5082703;28;20201;-49
2021/04/27 05:26:13;;;;;;;2.17;1.90;;;;;;;;;;5087833;28;20179;-50
2021/04/27 05:28:38;;;;;;;2.73;1.90;;;;;;;;;;5081828;28;20173;-48
2021/04/27 05:31:04;;;;;;;2.23;1.73;;;;;;;;;;5066839;28;20672;-49
2021/04/27 05:33:29;;;;;;;4.67;2.20;;;;;;;;;;5086256;28;20196;-48
2021/04/27 05:35:57;;;;;;;4.83;2.00;;;;;;;;;;5084954;28;20199;-50
2021/04/27 05:38:23;;;;;;;4.80;2.17;;;;;;;;;;5087189;28;20205;-49
2021/04/27 05:40:48;;;;;;;2.27;1.40;;;;;;;;;;5085985;28;20181;-49
2021/04/27 05:43:13;;;;;;;5.50;1.90;;;;;;;;;;5066863;28;20193;-48
2021/04/27 05:45:39;;;;;;;4.80;1.90;;;;;;;;;;5066170;28;20224;-50
2021/04/27 05:48:04;;;;;;;3.03;1.80;;;;;;;;;;5079900;28;20185;-49
2021/04/27 05:50:29;;;;;;;7.23;1.40;;;;;;;;;;5062900;28;20208;-49
2021/04/27 05:52:55;;;;;;;3.93;1.73;;;;;;;;;;5078590;28;20283;-47
2021/04/27 05:55:20;;;;;;;3.30;1.73;;;;;;;;;;5071278;28;20748;-48
2021/04/27 05:57:45;;;;;;;2.90;1.73;;;;;;;;;;5079310;28;20224;-48
2021/04/27 06:00:11;;;;;;;1.70;1.03;;;;;;;;;;5077888;28;20595;-48
2021/04/27 06:02:39;;;;;;;2.97;1.30;;;;;;;;;;5078946;28;20233;-48
2021/04/27 06:05:04;;;;;;;4.33;1.40;;;;;;;;;;5065150;28;20747;-48
2021/04/27 06:07:30;;;;;;;0.70;0.70;;;;;;;;;;5069576;28;20208;-48
2021/04/27 06:09:57;;;;;;;2.37;1.50;;;;;;;;;;5083161;28;20189;-47
2021/04/27 06:12:27;;;;;;;2.77;1.60;;;;;;;;;;5079325;28;20185;-50
2021/04/27 06:14:52;;;;;;;1.13;1.03;;;;;;;;;;5080438;28;20552;-48
2021/04/27 06:17:18;;;;;;;1.00;0.90;;;;;;;;;;5080885;28;20575;-47
2021/04/27 06:19:43;;;;;;;4.43;1.57;;;;;;;;;;5077772;28;20218;-48
2021/04/27 06:22:11;;;;;;;2.00;1.10;;;;;;;;;;5069928;28;20189;-47
2021/04/27 06:24:36;;;;;;;2.43;1.20;;;;;;;;;;5081155;28;20706;-49
2021/04/27 06:27:01;;;;;;;3.30;1.17;;;;;;;;;;5064307;28;20236;-48
2021/04/27 06:29:26;;;;;;;1.93;1.33;;;;;;;;;;5081656;28;20530;-48
2021/04/27 06:31:51;;;;;;;1.20;1.13;;;;;;;;;;5084517;28;20266;-48
2021/04/27 06:34:19;;;;;;;2.43;1.70;;;;;;;;;;5079388;28;20298;-48
2021/04/27 06:36:44;;;;;;;1.73;1.50;;;;;;;;;;5086454;28;20338;-51
2021/04/27 06:39:11;;;;;;;5.60;1.60;;;;;;;;;;5077197;28;20724;-49
2021/04/27 06:41:37;;;;;;;2.03;1.63;;;;;;;;;;5082431;28;20179;-49
2021/04/27 06:44:03;;;;;;;2.20;1.13;;;;;;;;;;5066098;28;20578;-48
2021/04/27 06:46:29;;;;;;;2.73;1.10;;;;;;;;;;5085092;28;20184;-48
2021/04/27 06:48:54;;;;;;;1.97;1.17;;;;;;;;;;5066093;28;20197;-49
2021/04/27 06:51:19;;;;;;;3.13;1.60;;;;;;;;;;5079745;28;20706;-49
2021/04/27 06:53:45;;;;;;;3.87;1.60;;;;;;;;;;5075509;28;20275;-49
2021/04/27 06:56:11;;;;;;;1.70;1.60;;;;;;;;;;5088243;28;20195;-49
2021/04/27 06:58:36;;;;;;;1.43;1.33;;;;;;;;;;5085941;28;20783;-47
2021/04/27 07:01:01;;;;;;;2.00;1.67;;;;;;;;;;5077336;28;20181;-47
2021/04/27 07:03:26;;;;;;;2.80;1.47;;;;;;;;;;5080347;28;20177;-50
2021/04/27 07:05:52;;;;;;;2.53;1.80;;;;;;;;;;5057048;28;20176;-49
2021/04/27 07:08:17;;;;;;;1.47;1.37;;;;;;;;;;5065996;28;20189;-50
2021/04/27 07:10:42;;;;;;;2.57;1.30;;;;;;;;;;5083792;28;20177;-50
2021/04/27 07:13:07;;;;;;;1.70;1.60;;;;;;;;;;5089425;28;20187;-47
2021/04/27 07:15:33;;;;;;;3.10;1.70;;;;;;;;;;5085360;28;20709;-48
2021/04/27 07:17:58;;;;;;;4.20;2.10;;;;;;;;;;5086537;28;20203;-49
2021/04/27 07:20:23;;;;;;;2.00;1.80;;;;;;;;;;5083349;28;20208;-49
2021/04/27 07:22:49;;;;;;;2.67;2.27;;;;;;;;;;5065042;28;20272;-49
2021/04/27 07:25:14;;;;;;;2.10;1.40;;;;;;;;;;5084303;28;20231;-50
2021/04/27 07:27:40;;;;;;;1.45;1.10;;;;;;;;;;5065966;28;20718;-51
2021/04/27 07:30:07;;;;;;;1.55;1.45;;;;;;;;;;5064756;28;20188;-50
2021/04/27 07:32:32;;;;;;;2.35;1.55;;;;;;;;;;5084114;28;20192;-49
2021/04/27 07:34:57;;;;;;;3.05;2.30;;;;;;;;;;5064810;28;20283;-51
2021/04/27 07:37:22;;;;;;;2.78;1.60;;;;;;;;;;5083779;28;20549;-50
2021/04/27 07:39:48;;;;;;;3.90;1.92;;;;;;;;;;5082466;28;20189;-49
2021/04/27 07:42:13;;;;;;;2.08;1.73;;;;;;;;;;5082857;28;20207;-50
2021/04/27 07:44:38;;;;;;;1.70;1.40;;;;;;;;;;5084018;28;20749;-49
2021/04/27 07:47:04;;;;;;;2.47;1.90;;;;;;;;;;5086102;28;20190;-49
2021/04/27 07:49:29;;;;;;;1.67;1.27;;;;;;;;;;5087428;28;20192;-49
2021/04/27 07:51:55;;;;;;;2.50;1.20;;;;;;;;;;5088037;28;20235;-49
2021/04/27 07:54:20;;;;;;;1.47;1.30;;;;;;;;;;5076145;28;20208;-50
2021/04/27 07:56:45;;;;;;;2.17;1.60;;;;;;;;;;5064358;28;20253;-50
2021/04/27 07:59:13;;;;;;;5.63;1.43;;;;;;;;;;5081820;28;20189;-47
2021/04/27 08:01:38;;;;;;;3.10;1.63;;;;;;;;;;5061869;28;20185;-48
2021/04/27 08:04:03;;;;;;;3.80;2.00;;;;;;;;;;5082484;28;20203;-48
2021/04/27 08:06:29;;;;;;;1.40;1.30;;;;;;;;;;5063122;28;20657;-50
2021/04/27 08:08:54;;;;;;;2.30;1.37;;;;;;;;;;5082914;28;20188;-49
2021/04/27 08:11:19;;;;;;;3.97;1.20;;;;;;;;;;5082976;28;20195;-50
2021/04/27 08:13:45;;;;;;;1.30;1.20;;;;;;;;;;5083318;28;20200;-48
2021/04/27 08:16:10;;;;;;;2.27;1.50;;;;;;;;;;5082060;28;20185;-49
2021/04/27 08:18:37;;;;;;;1.60;1.50;;;;;;;;;;5085230;28;20165;-49
2021/04/27 08:21:04;;;;;;;2.07;1.77;;;;;;;;;;5084330;28;20176;-49
2021/04/27 08:23:31;;;;;;;3.67;1.77;;;;;;;;;;5081934;28;20193;-50
2021/04/27 08:25:58;;;;;;;2.13;1.50;;;;;;;;;;5082796;28;20189;-47
2021/04/27 08:28:23;;;;;;;1.57;1.17;;;;;;;;;;5076128;28;20200;-49
2021/04/27 08:30:48;;;;;;;2.67;1.50;;;;;;;;;;5066947;28;20918;-49
2021/04/27 08:33:16;;;;;;;1.40;1.30;;;;;;;;;;5069503;28;20196;-50
2021/04/27 08:35:41;;;;;;;3.53;1.53;;;;;;;;;;5087002;28;20600;-49
2021/04/27 08:38:06;;;;;;;4.93;1.87;;;;;;;;;;5066191;28;20204;-49
2021/04/27 08:40:31;;;;;;;1.83;1.50;;;;;;;;;;5084049;28;20277;-49
2021/04/27 08:42:57;;;;;;;2.10;1.50;;;;;;;;;;5087370;28;20189;-49
2021/04/27 08:45:22;;;;;;;1.67;1.33;;;;;;;;;;5082671;28;20212;-48
2021/04/27 08:47:47;;;;;;;2.63;1.60;;;;;;;;;;5089465;22;20189;-51
2021/04/27 08:50:13;;;;;;;1.67;1.50;;;;;;;;;;5066038;28;20688;-54
2021/04/27 08:52:41;;;;;;;5.63;1.40;;;;;;;;;;5067671;28;20180;-51
2021/04/27 08:55:09;;;;;;;3.07;1.50;;;;;;;;;;5058181;28;20196;-54
2021/04/27 08:57:36;;;;;;;2.57;1.30;;;;;;;;;;5068837;28;20204;-54
2021/04/27 09:00:09;;;;;;;3.10;1.63;;;;;;;;;;5053450;28;20703;-53
2021/04/27 09:02:36;;;;;;;2.80;1.50;;;;;;;;;;5068896;28;20561;-50
2021/04/27 09:05:03;;;;;;;2.40;1.67;;;;;;;;;;5072011;28;20200;-53
2021/04/27 09:07:41;;;;;;;1.80;1.27;;;;;;;;;;5064436;28;20653;-53
2021/04/27 09:10:14;;;;;;;1.73;1.40;;;;;;;;;;5064035;28;20185;-51
2021/04/27 09:12:45;;;;;;;3.40;1.43;;;;;;;;;;5049030;28;20221;-52
2021/04/27 09:15:13;;;;;;;1.73;1.30;;;;;;;;;;5059068;28;20204;-52
2021/04/27 09:17:42;;;;;;;1.77;1.17;;;;;;;;;;5052669;28;20215;-52
2021/04/27 09:20:07;;;;;;;4.47;1.50;;;;;;;;;;5065444;28;20232;-51
2021/04/27 09:22:34;;;;;;;2.90;1.37;;;;;;;;;;5066531;28;20619;-51
2021/04/27 09:25:03;;;;;;;1.27;1.00;;;;;;;;;;5062120;28;20199;-50
2021/04/27 09:27:37;;;;;;;4.60;1.27;;;;;;;;;;5069265;28;20185;-54
2021/04/27 09:30:13;;;;;;;2.10;1.43;;;;;;;;;;5066623;28;20254;-52
2021/04/27 09:32:41;;;;;;;1.73;1.37;;;;;;;;;;5071843;28;20191;-52
2021/04/27 09:35:21;;;;;;;1.60;1.10;;;;;;;;;;5049351;28;20225;-53
2021/04/27 09:38:05;;;;;;;1.60;1.23;;;;;;;;;;5064993;28;20209;-54
2021/04/27 09:40:30;;;;;;;2.33;1.57;;;;;;;;;;5069155;28;20796;-52
2021/04/27 09:43:07;;;;;;;2.47;1.50;;;;;;;;;;5067318;28;20211;-52
2021/04/27 09:45:41;;;;;;;2.10;1.90;;;;;;;;;;5060116;28;20218;-53
2021/04/27 09:48:09;;;;;;;1.37;1.10;;;;;;;;;;5045458;28;20220;-53
2021/04/27 09:50:37;;;;;;;5.37;1.93;;;;;;;;;;5074717;28;20180;-53
2021/04/27 09:53:03;;;;;;;2.17;1.60;;;;;;;;;;5066582;28;20197;-49
2021/04/27 09:55:33;;;;;;;1.50;1.40;;;;;;;;;;5061855;28;20216;-50
2021/04/27 09:58:01;;;;;;;1.77;1.23;;;;;;;;;;5066064;28;20688;-52
2021/04/27 10:00:35;;;;;;;1.73;1.30;;;;;;;;;;5066835;28;20204;-51
2021/04/27 10:03:03;;;;;;;3.00;1.30;;;;;;;;;;5068944;28;20564;-52
2021/04/27 10:05:29;;;;;;;3.10;1.93;;;;;;;;;;5050154;28;20242;-54
2021/04/27 10:07:57;;;;;;;4.30;1.97;;;;;;;;;;5047502;28;20184;-51
2021/04/27 10:10:23;;;;;;;1.53;1.40;;;;;;;;;;5057726;28;20272;-51
2021/04/27 10:12:48;;;;;;;5.10;2.00;;;;;;;;;;5043964;28;20197;-54
2021/04/27 10:15:16;;;;;;;1.70;1.50;;;;;;;;;;5043547;28;20224;-50
2021/04/27 10:17:44;;;;;;;2.07;1.30;;;;;;;;;;5060761;28;20219;-54
2021/04/27 10:20:13;;;;;;;2.97;1.77;;;;;;;;;;5043325;28;20235;-51
2021/04/27 10:22:43;;;;;;;3.33;1.37;;;;;;;;;;5060992;28;20211;-51
2021/04/27 10:25:19;;;;;;;3.10;2.20;;;;;;;;;;5062296;28;20660;-51
2021/04/27 10:27:51;;;;;;;1.70;1.57;;;;;;;;;;5064874;28;20837;-52
2021/04/27 10:30:16;;;;;;;1.60;1.20;;;;;;;;;;5067032;28;20267;-52
2021/04/27 10:32:42;;;;;;;3.67;1.80;;;;;;;;;;5068777;28;20269;-53
2021/04/27 10:35:11;;;;;;;5.83;2.13;;;;;;;;;;5071187;28;20691;-50
2021/04/27 10:37:57;;;;;;;4.00;1.50;;;;;;;;;;5066359;28;20223;-51
2021/04/27 10:40:54;;;;;;;1.13;1.03;;;;;;;;;;5065836;28;20188;-52
2021/04/27 10:43:24;;;;;;;1.60;1.40;;;;;;;;;;5039248;28;20208;-53
2021/04/27 10:45:50;;;;;;;5.00;1.60;;;;;;;;;;5067832;28;20181;-52
2021/04/27 10:48:24;;;;;;;3.53;2.00;;;;;;;;;;5064331;28;20213;-53
2021/04/27 10:50:52;;;;;;;2.53;1.57;;;;;;;;;;5069082;28;20274;-55
2021/04/27 10:53:34;;;;;;;2.53;1.53;;;;;;;;;;5050591;28;20191;-52
2021/04/27 10:56:00;;;;;;;2.67;1.57;;;;;;;;;;5064268;28;20615;-57
2021/04/27 10:58:46;;;;;;;1.57;1.07;;;;;;;;;;5064874;28;20236;-53
2021/04/27 11:01:22;;;;;;;4.57;2.30;;;;;;;;;;5063572;28;20181;-51
2021/04/27 11:03:53;;;;;;;7.03;2.27;;;;;;;;;;5064559;28;20194;-52
2021/04/27 11:06:21;;;;;;;2.40;1.33;;;;;;;;;;5063707;28;20224;-51
2021/04/27 11:08:52;;;;;;;3.00;1.50;;;;;;;;;;5056316;28;20209;-52
2021/04/27 11:11:21;;;;;;;2.17;1.90;;;;;;;;;;5049036;28;20242;-50
2021/04/27 11:13:49;;;;;;;3.00;1.60;;;;;;;;;;5068606;28;20197;-52
2021/04/27 11:16:27;;;;;;;2.40;2.10;;;;;;;;;;5042698;28;20185;-52
2021/04/27 11:19:08;;;;;;;1.70;1.60;;;;;;;;;;5062937;28;20201;-50
2021/04/27 11:21:36;;;;;;;2.77;1.47;;;;;;;;;;5047167;28;20189;-51
2021/04/27 11:24:05;;;;;;;4.00;1.63;;;;;;;;;;5066959;28;20726;-51
2021/04/27 11:26:36;;;;;;;3.33;1.30;;;;;;;;;;5073131;28;20665;-52
2021/04/27 11:29:10;;;;;;;2.35;1.50;;;;;;;;;;5067100;28;20413;-51
2021/04/27 11:31:51;;;;;;;1.87;1.50;;;;;;;;;;5060202;28;20556;-56
2021/04/27 11:34:16;;;;;;;2.47;1.80;;;;;;;;;;5065074;28;20189;-52
2021/04/27 11:36:42;;;;;;;1.70;1.60;;;;;;;;;;5068467;28;20689;-51
2021/04/27 11:39:21;;;;;;;2.63;1.80;;;;;;;;;;5048577;28;20213;-52
2021/04/27 11:41:49;;;;;;;3.87;2.20;;;;;;;;;;5062514;28;20177;-51
2021/04/27 11:44:15;;;;;;;1.93;1.73;;;;;;;;;;5066901;28;20189;-52
2021/04/27 11:47:05;;;;;;;3.60;1.77;;;;;;;;;;5070789;28;20431;-53
2021/04/27 11:50:06;;;;;;;2.60;1.80;;;;;;;;;;5055125;28;20283;-51
2021/04/27 11:52:46;;;;;;;1.93;1.50;;;;;;;;;;4986283;28;20226;-51
2021/04/27 11:55:15;;;;;;;2.53;2.03;;;;;;;;;;5058308;28;20254;-50
2021/04/27 11:57:46;;;;;;;2.47;1.47;;;;;;;;;;5069813;28;20201;-51
2021/04/27 12:00:13;;;;;;;1.80;1.60;;;;;;;;;;5062305;28;20645;-52
2021/04/27 12:02:40;;;;;;;3.67;2.00;;;;;;;;;;5066020;28;20585;-52
2021/04/27 12:05:10;;;;;;;3.40;2.53;;;;;;;;;;5065326;28;20189;-50
2021/04/27 12:07:36;;;;;;;4.93;2.00;;;;;;;;;;5070789;28;20180;-53
2021/04/27 12:10:01;;;;;;;1.63;1.53;;;;;;;;;;5069861;28;20356;-50
2021/04/27 12:12:27;;;;;;;6.03;1.60;;;;;;;;;;5071307;28;20235;-52
2021/04/27 12:14:54;;;;;;;4.40;2.20;;;;;;;;;;5068491;28;20669;-52
2021/04/27 12:17:26;;;;;;;2.40;1.47;;;;;;;;;;5051834;28;20208;-52
2021/04/27 12:20:09;;;;;;;3.10;1.40;;;;;;;;;;5069604;28;20749;-52
2021/04/27 12:22:47;;;;;;;2.77;1.50;;;;;;;;;;5064438;28;20189;-53
2021/04/27 12:25:33;;;;;;;2.10;1.87;;;;;;;;;;5067960;28;20184;-52
2021/04/27 12:28:03;;;;;;;1.70;1.60;;;;;;;;;;5061849;28;20196;-49
2021/04/27 12:30:29;;;;;;;3.80;1.40;;;;;;;;;;5042152;28;20285;-52
2021/04/27 12:33:06;;;;;;;2.33;2.10;;;;;;;;;;5066041;28;20235;-52
2021/04/27 12:35:35;;;;;;;1.57;1.30;;;;;;;;;;5048301;28;20169;-53
2021/04/27 12:38:02;;;;;;;1.83;1.73;;;;;;;;;;5069540;28;20215;-50
2021/04/27 12:40:28;;;;;;;2.33;1.80;;;;;;;;;;5073892;28;20250;-52
2021/04/27 12:42:55;;;;;;;3.97;2.00;;;;;;;;;;5067749;28;20181;-51
2021/04/27 12:45:23;;;;;;;3.17;1.57;;;;;;;;;;5063694;28;20177;-52
2021/04/27 12:48:02;;;;;;;4.90;1.77;;;;;;;;;;5064757;28;20422;-50
2021/04/27 12:50:28;;;;;;;4.80;2.17;;;;;;;;;;5058594;28;20250;-50
2021/04/27 12:52:55;;;;;;;3.40;2.33;;;;;;;;;;5067567;28;20254;-52
2021/04/27 12:55:27;;;;;;;3.20;1.67;;;;;;;;;;5067658;28;20189;-51
2021/04/27 12:57:52;;;;;;;1.70;1.60;;;;;;;;;;5067341;28;20197;-50
2021/04/27 13:00:23;;;;;;;3.63;1.80;;;;;;;;;;5064522;28;20188;-52
2021/04/27 13:02:49;;;;;;;1.83;1.33;;;;;;;;;;5064808;28;20208;-51
2021/04/27 13:05:24;;;;;;;4.10;1.97;;;;;;;;;;5061316;28;20653;-53
2021/04/27 13:08:01;;;;;;;2.03;1.87;;;;;;;;;;5062070;28;20177;-51
2021/04/27 13:10:35;;;;;;;2.70;2.30;;;;;;;;;;5070196;28;20662;-51
2021/04/27 13:13:00;;;;;;;3.37;1.63;;;;;;;;;;5067803;28;20196;-51
2021/04/27 13:15:26;;;;;;;1.50;1.40;;;;;;;;;;5065567;28;20189;-52
2021/04/27 13:17:58;;;;;;;2.23;2.00;;;;;;;;;;5070802;28;20197;-52
2021/04/27 13:20:27;;;;;;;2.63;1.37;;;;;;;;;;5068960;28;20262;-53
2021/04/27 13:22:57;;;;;;;2.30;2.10;;;;;;;;;;5066369;28;20173;-50
2021/04/27 13:25:26;;;;;;;2.23;2.00;;;;;;;;;;5066151;28;20173;-50
2021/04/27 13:27:56;;;;;;;2.50;1.90;;;;;;;;;;5065758;28;20188;-52
2021/04/27 13:30:22;;;;;;;2.37;1.47;;;;;;;;;;5073071;28;20397;-50
2021/04/27 13:32:50;;;;;;;2.40;1.87;;;;;;;;;;5070233;28;20181;-51
2021/04/27 13:35:36;;;;;;;1.50;1.20;;;;;;;;;;5062636;28;20280;-50
2021/04/27 13:38:04;;;;;;;3.57;2.33;;;;;;;;;;5065970;28;20890;-50
2021/04/27 13:40:29;;;;;;;1.63;1.53;;;;;;;;;;5064698;28;20631;-50
2021/04/27 13:42:59;;;;;;;1.70;1.47;;;;;;;;;;5067611;28;20169;-53
2021/04/27 13:45:30;;;;;;;2.80;2.30;;;;;;;;;;5071057;28;20177;-52
2021/04/27 13:47:55;;;;;;;3.57;2.10;;;;;;;;;;5048212;28;20188;-51
2021/04/27 13:50:22;;;;;;;3.50;1.80;;;;;;;;;;5065815;28;20358;-52
2021/04/27 13:52:47;;;;;;;2.20;1.93;;;;;;;;;;5058152;28;20306;-54
2021/04/27 13:55:14;;;;;;;1.33;1.13;;;;;;;;;;5066247;28;20264;-52
2021/04/27 13:57:41;;;;;;;2.37;1.83;;;;;;;;;;5050129;28;20220;-49
2021/04/27 14:00:07;;;;;;;3.80;2.33;;;;;;;;;;5067697;28;20658;-51
2021/04/27 14:02:33;;;;;;;3.90;2.53;;;;;;;;;;5062029;28;20170;-53
2021/04/27 14:04:58;;;;;;;3.53;2.80;;;;;;;;;;5042303;28;20192;-53
2021/04/27 14:07:26;;;;;;;2.57;1.87;;;;;;;;;;5067490;28;20181;-52
2021/04/27 14:09:53;;;;;;;3.77;1.93;;;;;;;;;;5065138;28;20704;-51
2021/04/27 14:12:18;;;;;;;5.27;2.50;;;;;;;;;;5066337;28;20187;-52
2021/04/27 14:14:48;;;;;;;3.00;2.30;;;;;;;;;;5064570;28;20174;-52
2021/04/27 14:17:16;;;;;;;1.63;1.50;;;;;;;;;;5063231;28;20596;-52
2021/04/27 14:19:43;;;;;;;3.97;2.37;;;;;;;;;;5061681;28;20386;-50
2021/04/27 14:22:10;;;;;;;3.30;2.00;;;;;;;;;;5058238;28;20266;-51
2021/04/27 14:24:41;;;;;;;4.53;1.70;;;;;;;;;;5038710;28;20227;-53
2021/04/27 14:27:06;;;;;;;2.23;1.73;;;;;;;;;;5050738;28;20246;-50
2021/04/27 14:29:31;;;;;;;1.43;1.30;;;;;;;;;;5053648;28;20204;-52
2021/04/27 14:31:56;;;;;;;3.73;1.83;;;;;;;;;;5062265;28;20204;-53
2021/04/27 14:34:21;;;;;;;3.07;2.40;;;;;;;;;;5061770;28;20205;-50
2021/04/27 14:36:49;;;;;;;2.67;2.00;;;;;;;;;;5065993;28;20213;-50
2021/04/27 14:39:15;;;;;;;1.67;1.30;;;;;;;;;;5067711;28;20721;-51
2021/04/27 14:41:41;;;;;;;2.53;2.07;;;;;;;;;;5067226;28;20209;-50
2021/04/27 14:44:12;;;;;;;4.03;2.60;;;;;;;;;;5068188;28;20181;-53
2021/04/27 14:46:38;;;;;;;2.37;1.83;;;;;;;;;;5063620;28;20183;-51